Impacts METAR Board
IDs:

KPHL - Philadelphia Intl, PA, US

Updated at: 2100 UTC 01 Feb 2023
Potential Impact None Slight Moderate High
Time 01/09Z 01/10Z 01/11Z 01/12Z 01/13Z 01/14Z 01/15Z 01/16Z 01/17Z 01/18Z 01/19Z 01/20Z 01/21Z
Temp34 31 31 31 32 32 33 35 35 37 37 38 39
Dewpt24 27 28 27 26 25 23 23 21 16 10 11 11
Altim30.20 30.22 30.22 30.25 30.27 30.28 30.30 30.31 30.30 30.28 30.26 30.25 30.27
VIS8 3 7 10 10 10 10 10 10 10 10 10 10
CIG42 17 85 13 32 38 -- 33 250 -- -- -- --
CoverOVCOVCOVCOVCOVCBKNSCTBKNBKNSCTSCTSCTSCT
FltCatVFRMVFRVFRMVFRVFRVFRVFRVFRVFRVFRVFRVFRVFR
WX-SN-SN BR-SN--------------------
WDir33034030402030350360320320280310310
WSpd4 5 5 4 6 5 5 8 8 6 8 9 10
WGst-- -- -- -- -- -- -- -- -- -- -- 17 --
Raw hourly METARs
KPHL 010854Z 33004KT 8SM -SN OVC042 01/M04 A3020 RMK AO2 SNB36 SLP225 P0000 60000 T00111044 51001 $
KPHL 011002Z 34005KT 3SM -SN BR OVC017 M01/M03 A3022 RMK AO2 P0000 T10061028 $
KPHL 011103Z 03005KT 7SM -SN FEW007 FEW050 OVC085 M01/M02 A3022 RMK AO2 P0000 T10061022 $
KPHL 011159Z 04004KT 10SM FEW009 BKN013 OVC090 M01/M03 A3025 RMK AO2 SNE59 P0000 T10061028 $
KPHL 011254Z 02006KT 10SM FEW019 OVC032 00/M03 A3027 RMK AO2 SNE1159 SLP248 P0000 T00001033 $
KPHL 011354Z 03005KT 10SM FEW018 BKN038 BKN130 00/M04 A3028 RMK AO2 SLP255 T00001039
KPHL 011454Z 35005KT 10SM SCT021 SCT042 01/M05 A3030 RMK AO2 SLP260 60000 T00061050 51019
KPHL 011554Z 36008KT 10SM BKN033 BKN250 02/M05 A3031 RMK AO2 SLP264 T00171050
KPHL 011654Z 32008KT 10SM SCT034 BKN250 02/M06 A3030 RMK AO2 SLP261 T00171061
KPHL 011754Z 32006KT 10SM FEW044 SCT250 03/M09 A3028 RMK AO2 SLP252 60000 T00281089 10028 21006 58008
KPHL 011854Z 28008KT 10SM SCT250 03/M12 A3026 RMK AO2 SLP246 T00281122
KPHL 011954Z 31009G17KT 10SM SCT250 03/M12 A3025 RMK AO2 SLP242 T00331117
KPHL 012054Z 31010KT 10SM SCT250 04/M12 A3027 RMK AO2 SLP248 T00391117 55003



Page loaded:  21:24 UTC  |   01:24 PM Pacific  |   02:24 PM Mountain  |   03:24 PM Central  |   04:24 PM Eastern

 

ADVISORIES

FORECASTS

FORECASTS

OBSERVATIONS

USER TOOLS

ABOUT US